createdAt,value
2018-06-24T00:00:23.914Z,23.9
2018-06-24T00:01:14.626Z,23.9
2018-06-24T00:02:04.336Z,23.9
2018-06-24T00:02:54.418Z,23.9
2018-06-24T00:03:44.467Z,23.9
2018-06-24T00:04:34.828Z,23.9
2018-06-24T00:05:24.584Z,23.9
2018-06-24T00:06:14.977Z,23.9
2018-06-24T00:07:05.309Z,24
2018-06-24T00:07:54.261Z,23.9
2018-06-24T00:08:44.839Z,23.9
2018-06-24T00:09:34.663Z,24
2018-06-24T00:10:24.945Z,23.9
2018-06-24T00:11:15.550Z,23.9
2018-06-24T00:12:04.785Z,23.9
2018-06-24T00:12:55.128Z,23.9
2018-06-24T00:13:45.973Z,23.9
2018-06-24T00:14:35.020Z,23.9
2018-06-24T00:15:25.393Z,23.9
2018-06-24T00:16:14.831Z,23.9
2018-06-24T00:17:04.687Z,23.9
2018-06-24T00:17:55.519Z,23.9
2018-06-24T00:18:44.209Z,23.9
2018-06-24T00:19:34.258Z,24
2018-06-24T00:20:25.742Z,23.9
2018-06-24T00:21:15.191Z,23.9
2018-06-24T00:22:05.262Z,23.9
2018-06-24T00:22:55.040Z,23.9
2018-06-24T00:23:45.759Z,23.9
2018-06-24T00:24:35.996Z,23.9
2018-06-24T00:25:26.172Z,23.9
2018-06-24T00:26:15.900Z,23.9
2018-06-24T00:27:06.530Z,23.9
2018-06-24T00:27:56.528Z,24
2018-06-24T00:28:46.092Z,23.9
2018-06-24T00:29:35.911Z,23.9
2018-06-24T00:30:25.909Z,23.9
2018-06-24T00:31:16.121Z,23.9
2018-06-24T00:32:05.891Z,23.9
2018-06-24T00:32:55.370Z,23.9
2018-06-24T00:33:45.975Z,23.9
2018-06-24T00:34:36.009Z,23.9
2018-06-24T00:35:26.666Z,23.9
2018-06-24T00:36:16.704Z,23.9
2018-06-24T00:37:07.572Z,23.9
2018-06-24T00:37:57.311Z,23.9
2018-06-24T00:38:47.358Z,23.9
2018-06-24T00:39:37.416Z,23.9
2018-06-24T00:40:27.291Z,23.9
2018-06-24T00:41:17.555Z,23.9
2018-06-24T00:42:07.327Z,23.9
2018-06-24T00:42:57.722Z,23.9
2018-06-24T00:43:47.185Z,23.9
2018-06-24T00:44:36.754Z,23.9
2018-06-24T00:45:27.837Z,23.9
2018-06-24T00:46:17.455Z,23.9
2018-06-24T00:47:08.286Z,24
2018-06-24T00:47:58.369Z,23.9
2018-06-24T00:48:48.112Z,23.9
2018-06-24T00:49:38.225Z,23.9
2018-06-24T00:50:27.955Z,23.9
2018-06-24T00:51:17.980Z,23.9
2018-06-24T00:52:08.091Z,23.9
2018-06-24T00:52:58.668Z,23.9
2018-06-24T00:53:48.573Z,23.9
2018-06-24T00:54:38.029Z,23.9
2018-06-24T00:55:28.587Z,23.9
2018-06-24T00:56:18.476Z,23.9
2018-06-24T00:57:08.424Z,23.9
2018-06-24T00:57:58.837Z,23.9
2018-06-24T00:58:48.598Z,23.9
2018-06-24T00:59:38.323Z,23.9
2018-06-24T01:00:28.507Z,23.9
2018-06-24T01:01:19.339Z,23.9
2018-06-24T01:02:09.169Z,23.9
2018-06-24T01:02:57.845Z,23.9
2018-06-24T01:03:49.072Z,23.9
2018-06-24T01:04:38.505Z,23.9
2018-06-24T01:05:28.652Z,23.9
2018-06-24T01:06:18.105Z,23.9
2018-06-24T01:07:07.867Z,23.9
2018-06-24T01:07:59.632Z,23.9
2018-06-24T01:08:49.613Z,23.9
2018-06-24T01:09:39.407Z,23.9
2018-06-24T01:10:28.108Z,23.9
2018-06-24T01:11:19.032Z,23.9
2018-06-24T01:12:08.551Z,23.9
2018-06-24T01:12:59.693Z,23.9
2018-06-24T01:13:49.202Z,23.9
2018-06-24T01:14:39.761Z,23.9
2018-06-24T01:15:29.855Z,23.9
2018-06-24T01:16:19.352Z,23.9
2018-06-24T01:17:09.703Z,23.9
2018-06-24T01:17:59.770Z,23.9
2018-06-24T01:18:50.700Z,23.9
2018-06-24T01:19:40.196Z,23.9
2018-06-24T01:20:30.008Z,23.9
2018-06-24T01:21:20.565Z,23.9
2018-06-24T01:22:10.141Z,23.9
2018-06-24T01:23:00.675Z,23.9
2018-06-24T01:23:51.012Z,23.9
2018-06-24T01:24:40.545Z,23.9
2018-06-24T01:25:30.324Z,23.9
2018-06-24T01:26:20.641Z,23.9
2018-06-24T01:27:10.391Z,23.9
2018-06-24T01:28:00.849Z,23.9
2018-06-24T01:28:49.764Z,23.9
2018-06-24T01:29:40.908Z,23.9
2018-06-24T01:30:29.834Z,23.9
2018-06-24T01:31:19.936Z,23.9
2018-06-24T01:32:10.565Z,23.9
2018-06-24T01:33:01.234Z,23.9
2018-06-24T01:33:50.680Z,23.9
2018-06-24T01:34:41.865Z,23.9
2018-06-24T01:35:30.514Z,23.9
2018-06-24T01:36:20.938Z,23.9
2018-06-24T01:37:10.718Z,23.9
2018-06-24T01:38:00.464Z,23.9
2018-06-24T01:38:52.116Z,23.9
2018-06-24T01:39:40.516Z,23.9
2018-06-24T01:40:32.043Z,23.9
2018-06-24T01:41:22.069Z,23.9
2018-06-24T01:42:12.096Z,23.9
2018-06-24T01:43:02.427Z,23.9
2018-06-24T01:43:52.557Z,23.9
2018-06-24T01:44:42.033Z,23.9
2018-06-24T01:45:32.077Z,23.9
2018-06-24T01:46:22.677Z,23.9
2018-06-24T01:47:11.962Z,23.9
2018-06-24T01:48:02.507Z,23.9
2018-06-24T01:48:52.655Z,23.9
2018-06-24T01:49:42.421Z,23.9
2018-06-24T01:50:31.891Z,23.9
2018-06-24T01:51:22.415Z,23.9
2018-06-24T01:52:12.373Z,23.9
2018-06-24T01:53:02.057Z,23.9
2018-06-24T01:53:51.927Z,23.9
2018-06-24T01:54:42.562Z,23.9
2018-06-24T01:55:32.628Z,23.9
2018-06-24T01:56:23.515Z,23.9
2018-06-24T01:57:12.417Z,23.9
2018-06-24T01:58:03.039Z,23.9
2018-06-24T01:58:53.095Z,23.9
2018-06-24T01:59:42.702Z,23.9
2018-06-24T02:00:32.985Z,23.9
2018-06-24T02:01:22.684Z,23.9
2018-06-24T02:02:13.353Z,23.9
2018-06-24T02:03:03.766Z,23.9
2018-06-24T02:03:53.206Z,23.9
2018-06-24T02:04:43.263Z,23.9
2018-06-24T02:05:32.470Z,23.9
2018-06-24T02:06:23.979Z,23.9
2018-06-24T02:07:13.730Z,23.9
2018-06-24T02:08:02.930Z,23.9
2018-06-24T02:08:54.384Z,23.9
2018-06-24T02:09:43.573Z,23.9
2018-06-24T02:10:33.173Z,23.9
2018-06-24T02:11:23.177Z,23.9
2018-06-24T02:12:13.319Z,23.9
2018-06-24T02:13:03.915Z,23.9
2018-06-24T02:13:54.795Z,23.9
2018-06-24T02:14:44.656Z,23.9
2018-06-24T02:15:33.755Z,23.9
2018-06-24T02:16:24.961Z,23.9
2018-06-24T02:17:14.706Z,23.9
2018-06-24T02:18:04.463Z,23.9
2018-06-24T02:18:54.540Z,23.9
2018-06-24T02:19:44.634Z,23.9
2018-06-24T02:20:34.966Z,23.9
2018-06-24T02:21:23.911Z,23.9
2018-06-24T02:22:15.126Z,23.9
2018-06-24T02:23:04.656Z,23.9
2018-06-24T02:23:55.522Z,23.9
2018-06-24T02:24:44.471Z,23.9
2018-06-24T02:25:34.900Z,23.9
2018-06-24T02:26:24.907Z,23.9
2018-06-24T02:27:14.943Z,23.9
2018-06-24T02:28:05.308Z,23.9
2018-06-24T02:28:55.338Z,23.8
2018-06-24T02:29:44.887Z,23.9
2018-06-24T02:30:35.536Z,23.9
2018-06-24T02:31:25.821Z,23.9
2018-06-24T02:32:14.819Z,23.9
2018-06-24T02:33:05.104Z,23.9
2018-06-24T02:33:56.042Z,23.9
2018-06-24T02:34:44.675Z,23.9
2018-06-24T02:35:36.198Z,23.9
2018-06-24T02:36:25.643Z,23.9
2018-06-24T02:37:16.272Z,23.9
2018-06-24T02:38:05.451Z,23.8
2018-06-24T02:38:55.540Z,23.8
2018-06-24T02:39:45.837Z,23.8
2018-06-24T02:40:36.259Z,23.8
2018-06-24T02:41:24.846Z,23.9
2018-06-24T02:42:16.870Z,23.8
2018-06-24T02:43:06.973Z,23.8
2018-06-24T02:43:56.726Z,23.8
2018-06-24T02:44:46.479Z,23.9
2018-06-24T02:45:36.666Z,23.9
2018-06-24T02:46:26.926Z,23.9
2018-06-24T02:47:16.681Z,23.9
2018-06-24T02:48:06.531Z,23.9
2018-06-24T02:48:57.168Z,23.8
2018-06-24T02:49:47.184Z,23.8
2018-06-24T02:50:37.117Z,23.8
2018-06-24T02:51:25.748Z,23.9
2018-06-24T02:52:17.379Z,23.9
2018-06-24T02:53:05.872Z,23.9
2018-06-24T02:53:57.397Z,23.9
2018-06-24T02:54:46.283Z,23.8
2018-06-24T02:55:36.976Z,23.8
2018-06-24T02:56:27.235Z,23.8
2018-06-24T02:57:17.491Z,23.9
2018-06-24T02:58:06.776Z,23.8
2018-06-24T02:58:57.659Z,23.8
2018-06-24T02:59:47.682Z,23.8
2018-06-24T03:00:37.202Z,23.8
2018-06-24T03:01:26.736Z,23.8
2018-06-24T03:02:17.961Z,23.8
2018-06-24T03:03:07.191Z,23.8
2018-06-24T03:03:57.405Z,23.8
2018-06-24T03:04:47.188Z,23.8
2018-06-24T03:05:36.796Z,23.8
2018-06-24T03:06:27.388Z,23.8
2018-06-24T03:07:17.694Z,23.8
2018-06-24T03:08:08.403Z,23.8
2018-06-24T03:08:57.041Z,23.8
2018-06-24T03:09:48.140Z,23.8
2018-06-24T03:10:38.886Z,23.8
2018-06-24T03:11:27.736Z,23.8
2018-06-24T03:12:17.461Z,23.8
2018-06-24T03:13:08.407Z,23.8
2018-06-24T03:13:58.191Z,23.8
2018-06-24T03:14:48.293Z,23.8
2018-06-24T03:15:38.628Z,23.8
2018-06-24T03:16:28.373Z,23.8
2018-06-24T03:17:17.868Z,23.8
2018-06-24T03:18:07.983Z,23.8
2018-06-24T03:18:59.568Z,23.8
2018-06-24T03:19:49.478Z,23.8
2018-06-24T03:20:39.248Z,23.8
2018-06-24T03:21:29.035Z,23.8
2018-06-24T03:22:19.633Z,23.8
2018-06-24T03:23:08.945Z,23.8
2018-06-24T03:23:57.827Z,23.8
2018-06-24T03:24:49.288Z,23.8
2018-06-24T03:25:39.170Z,23.8
2018-06-24T03:26:28.775Z,23.8
2018-06-24T03:27:19.359Z,23.8
2018-06-24T03:28:09.735Z,23.8
2018-06-24T03:28:59.751Z,23.8
2018-06-24T03:29:49.019Z,23.8
2018-06-24T03:30:39.877Z,23.8
2018-06-24T03:31:29.744Z,23.8
2018-06-24T03:32:18.773Z,23.8
2018-06-24T03:33:10.704Z,23.8
2018-06-24T03:34:00.399Z,23.8
2018-06-24T03:34:50.489Z,23.8
2018-06-24T03:35:40.913Z,23.8
2018-06-24T03:36:30.719Z,23.8
2018-06-24T03:37:20.236Z,23.8
2018-06-24T03:38:10.561Z,23.8
2018-06-24T03:39:00.843Z,23.8
2018-06-24T03:39:50.874Z,23.8
2018-06-24T03:40:40.690Z,23.8
2018-06-24T03:41:30.505Z,23.8
2018-06-24T03:42:20.024Z,23.8
2018-06-24T03:43:10.920Z,23.8
2018-06-24T03:44:00.223Z,23.8
2018-06-24T03:44:49.907Z,23.8
2018-06-24T03:45:41.295Z,23.8
2018-06-24T03:46:30.352Z,23.8
2018-06-24T03:47:20.476Z,23.8
2018-06-24T03:48:10.726Z,23.8
2018-06-24T03:49:01.066Z,23.8
2018-06-24T03:49:51.145Z,23.8
2018-06-24T03:50:42.001Z,23.8
2018-06-24T03:51:31.013Z,23.8
2018-06-24T03:52:21.022Z,23.8
2018-06-24T03:53:11.092Z,23.8
2018-06-24T03:54:01.490Z,23.8
2018-06-24T03:54:50.119Z,23.8
2018-06-24T03:55:41.067Z,23.8
2018-06-24T03:56:30.888Z,23.8
2018-06-24T03:57:21.149Z,23.8
2018-06-24T03:58:13.091Z,23.8
2018-06-24T03:59:01.041Z,23.8
2018-06-24T03:59:52.137Z,23.8
2018-06-24T04:00:41.384Z,23.8
2018-06-24T04:01:31.583Z,23.8
2018-06-24T04:02:21.012Z,23.8
2018-06-24T04:03:12.367Z,23.8
2018-06-24T04:04:02.712Z,23.8
2018-06-24T04:04:54.135Z,23.8
2018-06-24T04:05:40.890Z,23.8
2018-06-24T04:06:31.557Z,23.8
2018-06-24T04:07:23.287Z,23.8
2018-06-24T04:08:13.417Z,23.8
2018-06-24T04:09:02.857Z,23.8
2018-06-24T04:09:52.920Z,23.8
2018-06-24T04:10:42.770Z,23.8
2018-06-24T04:11:32.242Z,23.8
2018-06-24T04:12:22.502Z,23.8
2018-06-24T04:13:12.008Z,23.8
2018-06-24T04:14:03.464Z,23.8
2018-06-24T04:14:52.965Z,23.8
2018-06-24T04:15:42.764Z,23.8
2018-06-24T04:16:33.381Z,23.8
2018-06-24T04:17:22.841Z,23.8
2018-06-24T04:18:13.255Z,23.8
2018-06-24T04:19:02.978Z,23.8
2018-06-24T04:19:53.651Z,23.8
2018-06-24T04:20:43.691Z,23.8
2018-06-24T04:21:34.066Z,23.8
2018-06-24T04:22:24.168Z,23.8
2018-06-24T04:23:13.586Z,23.8
2018-06-24T04:24:03.586Z,23.8
2018-06-24T04:24:52.870Z,23.8
2018-06-24T04:25:45.089Z,23.8
2018-06-24T04:26:33.056Z,23.8
2018-06-24T04:27:24.215Z,23.8
2018-06-24T04:28:13.782Z,23.8
2018-06-24T04:29:04.363Z,23.7
2018-06-24T04:29:54.389Z,23.8
2018-06-24T04:30:44.472Z,23.7
2018-06-24T04:31:33.727Z,23.8
2018-06-24T04:32:24.639Z,23.7
2018-06-24T04:33:14.131Z,23.8
2018-06-24T04:34:03.881Z,23.8
2018-06-24T04:34:54.194Z,23.8
2018-06-24T04:35:45.382Z,23.8
2018-06-24T04:36:34.547Z,23.8
2018-06-24T04:37:24.090Z,23.8
2018-06-24T04:38:14.693Z,23.8
2018-06-24T04:39:05.690Z,23.8
2018-06-24T04:39:55.709Z,23.8
2018-06-24T04:40:44.890Z,23.8
2018-06-24T04:41:35.192Z,23.8
2018-06-24T04:42:25.030Z,23.8
2018-06-24T04:43:14.855Z,23.8
2018-06-24T04:44:05.390Z,23.8
2018-06-24T04:44:55.768Z,23.7
2018-06-24T04:45:45.532Z,23.7
2018-06-24T04:46:35.605Z,23.7
2018-06-24T04:47:25.923Z,23.7
2018-06-24T04:48:15.816Z,23.8
2018-06-24T04:49:06.157Z,23.7
2018-06-24T04:49:56.215Z,23.8
2018-06-24T04:50:46.437Z,23.8
2018-06-24T04:51:36.447Z,23.7
2018-06-24T04:52:25.783Z,23.8
2018-06-24T04:53:15.936Z,23.7
2018-06-24T04:54:05.924Z,23.7
2018-06-24T04:54:55.483Z,23.8
2018-06-24T04:55:46.007Z,23.7
2018-06-24T04:56:36.178Z,23.8
2018-06-24T04:57:26.389Z,23.7
2018-06-24T04:58:15.919Z,23.7
2018-06-24T04:59:06.552Z,23.7
2018-06-24T04:59:55.745Z,23.7
2018-06-24T05:00:46.694Z,23.7
2018-06-24T05:01:35.658Z,23.7
2018-06-24T05:02:26.249Z,23.7
2018-06-24T05:03:15.976Z,23.7
2018-06-24T05:04:06.927Z,23.8
2018-06-24T05:04:57.242Z,23.7
2018-06-24T05:05:47.464Z,23.7
2018-06-24T05:06:38.448Z,23.7
2018-06-24T05:07:27.698Z,23.7
2018-06-24T05:08:17.473Z,23.7
2018-06-24T05:09:07.019Z,23.7
2018-06-24T05:09:56.215Z,23.7
2018-06-24T05:10:48.010Z,23.7
2018-06-24T05:11:37.786Z,23.7
2018-06-24T05:12:27.493Z,23.7
2018-06-24T05:13:17.928Z,23.7
2018-06-24T05:14:07.189Z,23.7
2018-06-24T05:14:58.138Z,23.7
2018-06-24T05:15:48.077Z,23.7
2018-06-24T05:16:37.876Z,23.7
2018-06-24T05:17:27.666Z,23.7
2018-06-24T05:18:17.169Z,23.7
2018-06-24T05:19:07.018Z,23.7
2018-06-24T05:19:58.038Z,23.7
2018-06-24T05:20:48.740Z,23.7
2018-06-24T05:21:38.537Z,23.7
2018-06-24T05:22:27.717Z,23.7
2018-06-24T05:23:18.174Z,23.7
2018-06-24T05:24:08.708Z,23.7
2018-06-24T05:24:58.176Z,23.7
2018-06-24T05:25:49.085Z,23.7
2018-06-24T05:26:38.945Z,23.7
2018-06-24T05:27:28.584Z,23.7
2018-06-24T05:28:18.852Z,23.7
2018-06-24T05:29:08.267Z,23.7
2018-06-24T05:29:58.397Z,23.7
2018-06-24T05:30:48.760Z,23.8
2018-06-24T05:31:37.941Z,23.7
2018-06-24T05:32:28.791Z,23.8
2018-06-24T05:33:19.197Z,23.8
2018-06-24T05:34:09.014Z,23.8
2018-06-24T05:34:57.906Z,23.7
2018-06-24T05:35:49.820Z,23.7
2018-06-24T05:36:39.856Z,23.7
2018-06-24T05:37:29.138Z,23.7
2018-06-24T05:38:19.476Z,23.7
2018-06-24T05:39:09.230Z,23.8
2018-06-24T05:39:59.128Z,23.8
2018-06-24T05:40:49.948Z,23.7
2018-06-24T05:41:39.103Z,23.7
2018-06-24T05:42:30.373Z,23.7
2018-06-24T05:43:20.719Z,23.8
2018-06-24T05:44:09.344Z,23.7
2018-06-24T05:44:59.969Z,23.7
2018-06-24T05:45:50.673Z,23.7
2018-06-24T05:46:39.600Z,23.7
2018-06-24T05:47:30.425Z,23.7
2018-06-24T05:48:19.995Z,23.7
2018-06-24T05:49:10.299Z,23.6
2018-06-24T05:49:59.845Z,23.7
2018-06-24T05:50:50.174Z,23.7
2018-06-24T05:51:40.783Z,23.7
2018-06-24T05:52:30.111Z,23.6
2018-06-24T05:53:20.038Z,23.7
2018-06-24T05:54:11.039Z,23.6
2018-06-24T05:55:01.041Z,23.6
2018-06-24T05:55:50.523Z,23.7
2018-06-24T05:56:41.132Z,23.6
2018-06-24T05:57:30.691Z,23.7
2018-06-24T05:58:20.752Z,23.7
2018-06-24T05:59:11.017Z,23.7
2018-06-24T06:00:00.837Z,23.7
2018-06-24T06:00:51.156Z,23.7
2018-06-24T06:01:41.712Z,23.7
2018-06-24T06:02:31.297Z,23.7
2018-06-24T06:03:21.397Z,23.7
2018-06-24T06:04:11.478Z,23.7
2018-06-24T06:05:01.493Z,23.7
2018-06-24T06:05:50.862Z,23.7
2018-06-24T06:06:41.349Z,23.7
2018-06-24T06:07:31.955Z,23.7
2018-06-24T06:08:22.059Z,23.7
2018-06-24T06:09:12.085Z,23.7
2018-06-24T06:10:02.176Z,23.7
2018-06-24T06:10:52.103Z,23.7
2018-06-24T06:11:42.180Z,23.7
2018-06-24T06:12:31.537Z,23.6
2018-06-24T06:13:21.649Z,23.7
2018-06-24T06:14:12.251Z,23.6
2018-06-24T06:15:02.624Z,23.6
2018-06-24T06:15:52.596Z,23.7
2018-06-24T06:16:42.379Z,23.6
2018-06-24T06:17:32.909Z,23.7
2018-06-24T06:18:23.068Z,23.7
2018-06-24T06:19:12.758Z,23.7
2018-06-24T06:20:02.909Z,23.7
2018-06-24T06:20:52.934Z,23.7
2018-06-24T06:21:43.133Z,23.6
2018-06-24T06:22:32.810Z,23.6
2018-06-24T06:23:22.804Z,23.6
2018-06-24T06:24:13.331Z,23.6
2018-06-24T06:25:02.999Z,23.6
2018-06-24T06:25:53.324Z,23.6
2018-06-24T06:26:43.646Z,23.6
2018-06-24T06:27:33.158Z,23.6
2018-06-24T06:28:23.187Z,23.6
2018-06-24T06:29:13.291Z,23.6
2018-06-24T06:30:03.480Z,23.6
2018-06-24T06:30:53.673Z,23.6
2018-06-24T06:31:44.028Z,23.6
2018-06-24T06:32:33.276Z,23.6
2018-06-24T06:33:23.075Z,23.6
2018-06-24T06:34:13.079Z,23.6
2018-06-24T06:35:03.716Z,23.6
2018-06-24T06:35:53.756Z,23.6
2018-06-24T06:36:44.246Z,23.6
2018-06-24T06:37:33.922Z,23.6
2018-06-24T06:38:24.290Z,23.6
2018-06-24T06:39:13.288Z,23.6
2018-06-24T06:40:04.663Z,23.6
2018-06-24T06:40:54.505Z,23.6
2018-06-24T06:41:43.362Z,23.6
2018-06-24T06:42:34.312Z,23.6
2018-06-24T06:43:24.583Z,23.6
2018-06-24T06:44:13.862Z,23.6
2018-06-24T06:45:06.899Z,23.6
2018-06-24T06:45:56.296Z,23.6
2018-06-24T06:46:44.071Z,23.6
2018-06-24T06:47:35.026Z,23.6
2018-06-24T06:48:24.446Z,23.6
2018-06-24T06:49:15.368Z,23.6
2018-06-24T06:50:03.243Z,23.6
2018-06-24T06:50:55.583Z,23.6
2018-06-24T06:51:44.990Z,23.6
2018-06-24T06:52:34.536Z,23.6
2018-06-24T06:53:24.170Z,23.6
2018-06-24T06:54:14.363Z,23.6
2018-06-24T06:55:05.580Z,23.6
2018-06-24T06:55:54.780Z,23.6
2018-06-24T06:56:44.253Z,23.6
2018-06-24T06:57:34.501Z,23.6
2018-06-24T06:58:24.670Z,23.6
2018-06-24T06:59:15.020Z,23.6
2018-06-24T07:00:05.656Z,23.6
2018-06-24T07:00:55.698Z,23.5
2018-06-24T07:01:45.279Z,23.6
2018-06-24T07:02:35.794Z,23.6
2018-06-24T07:03:27.529Z,23.5
2018-06-24T07:04:16.272Z,23.5
2018-06-24T07:05:05.437Z,23.5
2018-06-24T07:05:57.333Z,23.5
2018-06-24T07:06:46.162Z,23.5
2018-06-24T07:07:36.750Z,23.5
2018-06-24T07:08:26.270Z,23.5
2018-06-24T07:09:16.331Z,23.5
2018-06-24T07:10:06.088Z,23.6
2018-06-24T07:10:55.913Z,23.5
2018-06-24T07:11:46.364Z,23.5
2018-06-24T07:12:35.229Z,23.5
2018-06-24T07:13:26.094Z,23.5
2018-06-24T07:14:15.916Z,23.5
2018-06-24T07:15:06.470Z,23.5
2018-06-24T07:15:56.624Z,23.4
2018-06-24T07:16:46.349Z,23.4
2018-06-24T07:17:36.393Z,23.4
2018-06-24T07:18:25.780Z,23.4
2018-06-24T07:19:16.669Z,23.4
2018-06-24T07:20:06.607Z,23.4
2018-06-24T07:20:57.047Z,23.3
2018-06-24T07:21:47.635Z,23.4
2018-06-24T07:22:36.308Z,23.3
2018-06-24T07:23:25.746Z,23.3
2018-06-24T07:24:16.456Z,23.3
2018-06-24T07:25:07.003Z,23.3
2018-06-24T07:25:57.889Z,23.3
2018-06-24T07:26:47.096Z,23.4
2018-06-24T07:27:37.973Z,23.3
2018-06-24T07:28:27.752Z,23.4
2018-06-24T07:29:17.533Z,23.4
2018-06-24T07:30:08.284Z,23.3
2018-06-24T07:30:58.246Z,23.4
2018-06-24T07:31:47.449Z,23.3
2018-06-24T07:32:38.086Z,23.4
2018-06-24T07:33:29.140Z,23.4
2018-06-24T07:34:17.652Z,23.3
2018-06-24T07:35:07.737Z,23.3
2018-06-24T07:35:58.375Z,23.4
2018-06-24T07:36:47.846Z,23.3
2018-06-24T07:37:38.492Z,23.3
2018-06-24T07:38:28.618Z,23.3
2018-06-24T07:39:20.559Z,23.3
2018-06-24T07:40:08.400Z,23.3
2018-06-24T07:40:58.264Z,23.4
2018-06-24T07:41:48.044Z,23.3
2018-06-24T07:42:38.024Z,23.3
2018-06-24T07:43:27.613Z,23.3
2018-06-24T07:44:19.213Z,23.3
2018-06-24T07:45:08.563Z,23.3
2018-06-24T07:45:58.849Z,23.3
2018-06-24T07:46:48.466Z,23.3
2018-06-24T07:47:38.764Z,23.3
2018-06-24T07:48:28.585Z,23.3
2018-06-24T07:49:19.336Z,23.3
2018-06-24T07:50:09.236Z,23.3
2018-06-24T07:50:59.456Z,23.3
2018-06-24T07:51:48.706Z,23.3
2018-06-24T07:52:40.167Z,23.3
2018-06-24T07:53:29.615Z,23.3
2018-06-24T07:54:19.714Z,23.3
2018-06-24T07:55:09.770Z,23.3
2018-06-24T07:56:00.114Z,23.3
2018-06-24T07:56:49.895Z,23.3
2018-06-24T07:57:40.059Z,23.3
2018-06-24T07:58:30.021Z,23.3
2018-06-24T07:59:20.711Z,23.3
2018-06-24T08:00:10.155Z,23.3
2018-06-24T08:01:00.486Z,23.3
2018-06-24T08:01:49.713Z,23.3
2018-06-24T08:02:40.122Z,23.3
2018-06-24T08:03:32.052Z,23.3
2018-06-24T08:04:20.547Z,23.3
2018-06-24T08:05:11.089Z,23.3
2018-06-24T08:06:00.883Z,23.3
2018-06-24T08:06:50.647Z,23.3
2018-06-24T08:07:40.726Z,23.3
2018-06-24T08:08:30.787Z,23.3
2018-06-24T08:09:19.747Z,23.3
2018-06-24T08:10:10.923Z,23.3
2018-06-24T08:11:01.287Z,23.3
2018-06-24T08:11:51.388Z,23.3
2018-06-24T08:12:41.679Z,23.3
2018-06-24T08:13:31.312Z,23.3
2018-06-24T08:14:21.211Z,23.3
2018-06-24T08:15:11.893Z,23.3
2018-06-24T08:16:00.826Z,23.3
2018-06-24T08:16:51.461Z,23.3
2018-06-24T08:17:41.523Z,23.3
2018-06-24T08:18:31.814Z,23.3
2018-06-24T08:19:21.578Z,23.3
2018-06-24T08:20:11.729Z,23.3
2018-06-24T08:21:01.717Z,23.3
2018-06-24T08:21:52.327Z,23.3
2018-06-24T08:22:42.110Z,23.3
2018-06-24T08:23:31.097Z,23.3
2018-06-24T08:24:22.038Z,23.3
2018-06-24T08:25:11.523Z,23.3
2018-06-24T08:26:02.129Z,23.3
2018-06-24T08:26:52.428Z,23.3
2018-06-24T08:27:41.751Z,23.3
2018-06-24T08:28:32.265Z,23.3
2018-06-24T08:29:20.784Z,23.3
2018-06-24T08:30:12.749Z,23.3
2018-06-24T08:31:03.072Z,23.3
2018-06-24T08:31:53.393Z,23.3
2018-06-24T08:32:42.375Z,23.3
2018-06-24T08:33:32.399Z,23.3
2018-06-24T08:34:22.716Z,23.3
2018-06-24T08:35:12.357Z,23.3
2018-06-24T08:36:01.819Z,23.3
2018-06-24T08:36:53.241Z,23.3
2018-06-24T08:37:42.523Z,23.3
2018-06-24T08:38:33.100Z,23.3
2018-06-24T08:39:23.505Z,23.3
2018-06-24T08:40:12.649Z,23.3
2018-06-24T08:41:01.441Z,23.3
2018-06-24T08:41:53.609Z,23.3
2018-06-24T08:42:43.659Z,23.3
2018-06-24T08:43:33.225Z,23.3
2018-06-24T08:44:24.019Z,23.3
2018-06-24T08:45:14.164Z,23.3
2018-06-24T08:46:02.660Z,23.3
2018-06-24T08:46:52.711Z,23.3
2018-06-24T08:47:43.884Z,23.3
2018-06-24T08:48:31.990Z,23.3
2018-06-24T08:49:23.769Z,23.3
2018-06-24T08:50:13.588Z,23.3
2018-06-24T08:51:03.518Z,23.3
2018-06-24T08:51:52.357Z,23.3
2018-06-24T08:52:43.669Z,23.3
2018-06-24T08:53:32.929Z,23.3
2018-06-24T08:54:24.276Z,23.3
2018-06-24T08:55:14.233Z,23.3
2018-06-24T08:56:03.178Z,23.3
2018-06-24T08:56:54.301Z,23.3
2018-06-24T08:57:43.280Z,23.2
2018-06-24T08:58:33.303Z,23.2
2018-06-24T08:59:24.497Z,23.2
2018-06-24T09:00:14.067Z,23.2
2018-06-24T09:01:04.624Z,23.1
2018-06-24T09:01:54.167Z,23.1
2018-06-24T09:02:43.602Z,23.1
2018-06-24T09:03:33.577Z,23.1
2018-06-24T09:04:24.297Z,23.1
2018-06-24T09:05:15.195Z,23.1
2018-06-24T09:06:05.074Z,23.1
2018-06-24T09:06:53.410Z,23.1
2018-06-24T09:07:44.128Z,23.1
2018-06-24T09:08:35.204Z,23.1
2018-06-24T09:09:25.239Z,23.1
2018-06-24T09:10:15.260Z,23.1
2018-06-24T09:11:05.362Z,23.1
2018-06-24T09:11:55.160Z,23.1
2018-06-24T09:12:45.247Z,23.1
2018-06-24T09:13:34.764Z,23.1
